Golden Iris — 3FZK4 — position and weather

sailwx.info

Track history (hours):
 
Tides and Currents Weather Stations Pressure Air Temp Water Temp Dewpoint Dewpoint Depression Visibility Wind Speed Wind Dir Waves Ship Positions

Golden Iris

Last reported at 2015-Aug-30 23:25 UTC. Time now 2015-Aug-31 08:49 UTC.
Position N 34°34' E 031°48'.

Length 180 m; draft 6 m.

Type: Passenger vessel. MMSI: 371771000.

Date/timePositionNaut miles runAvg speedWind from/ knotsBaromVisibWave heightAir tempDewpointWater temp
2015-Aug-30 23:25N 34°34' E 031°48'2613.8
2015-Aug-30 21:33N 34°20' E 032°14'1413.7
2015-Aug-30 20:33N 34°13' E 032°28'1413.6
2015-Aug-30 19:32N 34°05' E 032°43'1413.2
2015-Aug-30 18:29N 33°58' E 032°57'1413.4
2015-Aug-30 17:28N 33°50' E 033°10'1213.6
2015-Aug-30 16:33N 33°44' E 033°23'2014.2
2015-Aug-30 15:10N 33°33' E 033°43'69 5.0
2015-Aug-30 01:27N 32°53' E 034°50'3310.7
2015-Aug-29 22:23N 33°15' E 034°20'1112.3
2015-Aug-29 21:31N 33°25' E 034°15'1212.9
2015-Aug-29 20:33N 33°36' E 034°10'1613.0
2015-Aug-29 19:21N 33°51' E 034°03'1013.1
2015-Aug-29 18:33N 34°00' E 033°58'1313.3
2015-Aug-29 17:33N 34°13' E 033°53'1313.3
2015-Aug-29 16:33N 34°26' E 033°49'1312.9
2015-Aug-29 15:34N 34°38' E 033°45'9 0.8
2015-Aug-29 03:33N 34°47' E 033°43'8 7.5
2015-Aug-29 02:33N 34°40' E 033°45'9 7.5
2015-Aug-29 01:25N 34°32' E 033°49'7 8.0
2015-Aug-29 00:34N 34°26' E 033°51'8 7.9
2015-Aug-28 23:32N 34°18' E 033°54'11 7.9
2015-Aug-28 22:08N 34°07' E 033°58'4 7.8
2015-Aug-28 21:33N 34°03' E 033°59'8 8.1
2015-Aug-28 20:34N 33°55' E 034°02'8 8.4
2015-Aug-28 19:34N 33°47' E 034°05'29 8.4
2015-Aug-28 16:09N 33°22' E 034°22'5 8.2
2015-Aug-28 15:30N 33°18' E 034°25'9 8.0
2015-Aug-28 14:24N 33°10' E 034°31'8 8.1
2015-Aug-28 13:22N 33°04' E 034°37'7 8.1
2015-Aug-28 12:33N 32°60' E 034°43'8 8.3
2015-Aug-28 11:33N 32°56' E 034°52'10 8.1
2015-Aug-28 10:21N 32°50' E 035°01'10 1.2
2015-Aug-28 02:08N 32°53' E 034°50'1013.9
2015-Aug-28 01:26N 32°55' E 034°39'1213.9
2015-Aug-28 00:33N 32°57' E 034°24'1413.9
2015-Aug-27 23:33N 33°00' E 034°08'1414.0
2015-Aug-27 22:33N 33°05' E 033°52'1413.9
2015-Aug-27 21:33N 33°09' E 033°36'1413.9
2015-Aug-27 20:33N 33°14' E 033°21'1413.6
2015-Aug-27 19:33N 33°18' E 033°05'1413.6
2015-Aug-27 18:33N 33°22' E 032°50'1413.8
2015-Aug-27 17:33N 33°27' E 032°34'1414.0
2015-Aug-27 16:33N 33°32' E 032°19'1414.4
2015-Aug-27 15:34N 33°37' E 032°02'1515.0
2015-Aug-27 14:34N 33°42' E 031°46'1514.8
2015-Aug-27 13:34N 33°48' E 031°29'1514.5
2015-Aug-27 12:34N 33°53' E 031°13'1414.4
2015-Aug-27 11:34N 33°58' E 030°57'1914.4
2015-Aug-27 10:14N 34°05' E 030°35'17513.5
2015-Aug-26 21:18N 35°04' E 027°15'912.3
2015-Aug-26 20:33N 35°07' E 027°04'42 2.0
2015-Aug-26 00:04N 35°43' E 026°39'611.8
2015-Aug-25 23:34N 35°47' E 026°45'1211.8
2015-Aug-25 22:33N 35°54' E 026°57'238 5.2
2015-Aug-24 00:33N 34°42' E 031°34'4413.9
2015-Aug-23 21:24N 34°19' E 032°20'1213.6
2015-Aug-23 20:33N 34°13' E 032°32'1313.5
2015-Aug-23 19:33N 34°06' E 032°46'1313.1
2015-Aug-23 18:33N 33°59' E 032°59'1313.2
2015-Aug-23 17:33N 33°52' E 033°13'1313.2
2015-Aug-23 16:34N 33°44' E 033°26'1413.8
2015-Aug-23 15:31N 33°36' E 033°40'1414.1
2015-Aug-23 14:33N 33°29' E 033°54'26 1.4
2015-Aug-22 19:08N 33°55' E 034°01'813.2
2015-Aug-22 18:33N 34°02' E 033°58'1313.1
2015-Aug-22 17:33N 34°14' E 033°53'1313.0
2015-Aug-22 16:33N 34°27' E 033°48'84 3.2
2015-Aug-21 14:33N 33°11' E 034°31'16 8.0
2015-Aug-21 12:33N 32°59' E 034°44'8 8.3
2015-Aug-21 11:33N 32°55' E 034°53'2 0.2
2015-Aug-21 02:13N 32°53' E 034°53'912.9
2015-Aug-21 01:32N 32°55' E 034°43'  
Track history (hours):
 
Tides and Currents Weather Stations Pressure Air Temp Water Temp Dewpoint Dewpoint Depression Visibility Wind Speed Wind Dir Waves Ship Positions

Golden Iris

Last reported at 2015-Aug-30 23:25 UTC. Time now 2015-Aug-31 08:49 UTC.
Position N 34°34' E 031°48'.

Length 180 m; draft 6 m.

Type: Passenger vessel. MMSI: 371771000.

Date/timePositionNaut miles runAvg speedWind from/ knotsBaromVisibWave heightAir tempDewpointWater temp
2015-Aug-30 23:25N 34°34' E 031°48'2613.8
2015-Aug-30 21:33N 34°20' E 032°14'1413.7
2015-Aug-30 20:33N 34°13' E 032°28'1413.6
2015-Aug-30 19:32N 34°05' E 032°43'1413.2
2015-Aug-30 18:29N 33°58' E 032°57'1413.4
2015-Aug-30 17:28N 33°50' E 033°10'1213.6
2015-Aug-30 16:33N 33°44' E 033°23'2014.2
2015-Aug-30 15:10N 33°33' E 033°43'69 5.0
2015-Aug-30 01:27N 32°53' E 034°50'3310.7
2015-Aug-29 22:23N 33°15' E 034°20'1112.3
2015-Aug-29 21:31N 33°25' E 034°15'1212.9
2015-Aug-29 20:33N 33°36' E 034°10'1613.0
2015-Aug-29 19:21N 33°51' E 034°03'1013.1
2015-Aug-29 18:33N 34°00' E 033°58'1313.3
2015-Aug-29 17:33N 34°13' E 033°53'1313.3
2015-Aug-29 16:33N 34°26' E 033°49'1312.9
2015-Aug-29 15:34N 34°38' E 033°45'9 0.8
2015-Aug-29 03:33N 34°47' E 033°43'8 7.5
2015-Aug-29 02:33N 34°40' E 033°45'9 7.5
2015-Aug-29 01:25N 34°32' E 033°49'7 8.0
2015-Aug-29 00:34N 34°26' E 033°51'8 7.9
2015-Aug-28 23:32N 34°18' E 033°54'11 7.9
2015-Aug-28 22:08N 34°07' E 033°58'4 7.8
2015-Aug-28 21:33N 34°03' E 033°59'8 8.1
2015-Aug-28 20:34N 33°55' E 034°02'8 8.4
2015-Aug-28 19:34N 33°47' E 034°05'29 8.4
2015-Aug-28 16:09N 33°22' E 034°22'5 8.2
2015-Aug-28 15:30N 33°18' E 034°25'9 8.0
2015-Aug-28 14:24N 33°10' E 034°31'8 8.1
2015-Aug-28 13:22N 33°04' E 034°37'7 8.1
2015-Aug-28 12:33N 32°60' E 034°43'8 8.3
2015-Aug-28 11:33N 32°56' E 034°52'10 8.1
2015-Aug-28 10:21N 32°50' E 035°01'10 1.2
2015-Aug-28 02:08N 32°53' E 034°50'1013.9
2015-Aug-28 01:26N 32°55' E 034°39'1213.9
2015-Aug-28 00:33N 32°57' E 034°24'1413.9
2015-Aug-27 23:33N 33°00' E 034°08'1414.0
2015-Aug-27 22:33N 33°05' E 033°52'1413.9
2015-Aug-27 21:33N 33°09' E 033°36'1413.9
2015-Aug-27 20:33N 33°14' E 033°21'1413.6
2015-Aug-27 19:33N 33°18' E 033°05'1413.6
2015-Aug-27 18:33N 33°22' E 032°50'1413.8
2015-Aug-27 17:33N 33°27' E 032°34'1414.0
2015-Aug-27 16:33N 33°32' E 032°19'1414.4
2015-Aug-27 15:34N 33°37' E 032°02'1515.0
2015-Aug-27 14:34N 33°42' E 031°46'1514.8
2015-Aug-27 13:34N 33°48' E 031°29'1514.5
2015-Aug-27 12:34N 33°53' E 031°13'1414.4
2015-Aug-27 11:34N 33°58' E 030°57'1914.4
2015-Aug-27 10:14N 34°05' E 030°35'17513.5
2015-Aug-26 21:18N 35°04' E 027°15'912.3
2015-Aug-26 20:33N 35°07' E 027°04'42 2.0
2015-Aug-26 00:04N 35°43' E 026°39'611.8
2015-Aug-25 23:34N 35°47' E 026°45'1211.8
2015-Aug-25 22:33N 35°54' E 026°57'238 5.2
2015-Aug-24 00:33N 34°42' E 031°34'4413.9
2015-Aug-23 21:24N 34°19' E 032°20'1213.6
2015-Aug-23 20:33N 34°13' E 032°32'1313.5
2015-Aug-23 19:33N 34°06' E 032°46'1313.1
2015-Aug-23 18:33N 33°59' E 032°59'1313.2
2015-Aug-23 17:33N 33°52' E 033°13'1313.2
2015-Aug-23 16:34N 33°44' E 033°26'1413.8
2015-Aug-23 15:31N 33°36' E 033°40'1414.1
2015-Aug-23 14:33N 33°29' E 033°54'26 1.4
2015-Aug-22 19:08N 33°55' E 034°01'813.2
2015-Aug-22 18:33N 34°02' E 033°58'1313.1
2015-Aug-22 17:33N 34°14' E 033°53'1313.0
2015-Aug-22 16:33N 34°27' E 033°48'84 3.2
2015-Aug-21 14:33N 33°11' E 034°31'16 8.0
2015-Aug-21 12:33N 32°59' E 034°44'8 8.3
2015-Aug-21 11:33N 32°55' E 034°53'2 0.2
2015-Aug-21 02:13N 32°53' E 034°53'912.9
2015-Aug-21 01:32N 32°55' E 034°43'  

Dump ship's entire track history